sensor_id;sensor_type;location;lat;lon;timestamp;P1;durP1;ratioP1;P2;durP2;ratioP2
49193;SDS011;35029;50.804;12.866;2022-12-07T00:01:30;24.38;;;16.60;;
49193;SDS011;35029;50.804;12.866;2022-12-07T00:03:58;23.95;;;16.33;;
49193;SDS011;35029;50.804;12.866;2022-12-07T00:06:35;23.75;;;17.20;;
49193;SDS011;35029;50.804;12.866;2022-12-07T00:09:06;26.63;;;17.83;;
49193;SDS011;35029;50.804;12.866;2022-12-07T00:11:34;24.58;;;17.08;;
49193;SDS011;35029;50.804;12.866;2022-12-07T00:14:01;25.42;;;16.77;;
49193;SDS011;35029;50.804;12.866;2022-12-07T00:16:30;22.05;;;15.73;;
49193;SDS011;35029;50.804;12.866;2022-12-07T00:18:57;25.02;;;16.83;;
49193;SDS011;35029;50.804;12.866;2022-12-07T00:21:27;22.70;;;17.02;;
49193;SDS011;35029;50.804;12.866;2022-12-07T00:26:21;24.88;;;17.48;;
49193;SDS011;35029;50.804;12.866;2022-12-07T00:28:52;27.00;;;17.70;;
49193;SDS011;35029;50.804;12.866;2022-12-07T00:31:20;25.77;;;17.65;;
49193;SDS011;35029;50.804;12.866;2022-12-07T00:33:49;22.48;;;16.33;;
49193;SDS011;35029;50.804;12.866;2022-12-07T00:36:16;24.67;;;17.52;;
49193;SDS011;35029;50.804;12.866;2022-12-07T00:38:43;25.35;;;17.45;;
49193;SDS011;35029;50.804;12.866;2022-12-07T00:41:13;27.45;;;18.35;;
49193;SDS011;35029;50.804;12.866;2022-12-07T00:43:41;23.65;;;17.65;;
49193;SDS011;35029;50.804;12.866;2022-12-07T00:46:07;26.35;;;17.60;;
49193;SDS011;35029;50.804;12.866;2022-12-07T00:48:33;29.75;;;19.20;;
49193;SDS011;35029;50.804;12.866;2022-12-07T00:50:59;26.50;;;18.75;;
49193;SDS011;35029;50.804;12.866;2022-12-07T00:53:24;28.05;;;18.73;;
49193;SDS011;35029;50.804;12.866;2022-12-07T00:55:50;29.02;;;19.58;;
49193;SDS011;35029;50.804;12.866;2022-12-07T00:58:17;26.42;;;18.58;;
49193;SDS011;35029;50.804;12.866;2022-12-07T01:00:43;23.52;;;16.35;;
49193;SDS011;35029;50.804;12.866;2022-12-07T01:03:10;27.65;;;18.35;;
49193;SDS011;35029;50.804;12.866;2022-12-07T01:05:37;25.60;;;18.05;;
49193;SDS011;35029;50.804;12.866;2022-12-07T01:08:02;24.70;;;17.88;;
49193;SDS011;35029;50.804;12.866;2022-12-07T01:10:29;29.13;;;19.70;;
49193;SDS011;35029;50.804;12.866;2022-12-07T01:12:56;29.60;;;20.13;;
49193;SDS011;35029;50.804;12.866;2022-12-07T01:15:23;25.00;;;17.30;;
49193;SDS011;35029;50.804;12.866;2022-12-07T01:17:49;28.08;;;18.88;;
49193;SDS011;35029;50.804;12.866;2022-12-07T01:20:15;27.88;;;18.88;;
49193;SDS011;35029;50.804;12.866;2022-12-07T01:22:41;26.42;;;19.35;;
49193;SDS011;35029;50.804;12.866;2022-12-07T01:25:09;26.92;;;18.42;;
49193;SDS011;35029;50.804;12.866;2022-12-07T01:27:36;30.15;;;20.60;;
49193;SDS011;35029;50.804;12.866;2022-12-07T01:30:03;26.20;;;18.58;;
49193;SDS011;35029;50.804;12.866;2022-12-07T01:32:31;25.05;;;18.13;;
49193;SDS011;35029;50.804;12.866;2022-12-07T01:34:57;23.38;;;17.23;;
49193;SDS011;35029;50.804;12.866;2022-12-07T01:37:22;25.10;;;18.10;;
49193;SDS011;35029;50.804;12.866;2022-12-07T01:39:48;25.88;;;17.75;;
49193;SDS011;35029;50.804;12.866;2022-12-07T01:42:15;27.35;;;18.30;;
49193;SDS011;35029;50.804;12.866;2022-12-07T01:47:48;25.10;;;17.02;;
49193;SDS011;35029;50.804;12.866;2022-12-07T01:50:19;25.90;;;17.33;;
49193;SDS011;35029;50.804;12.866;2022-12-07T01:52:46;22.85;;;17.15;;
49193;SDS011;35029;50.804;12.866;2022-12-07T01:55:16;28.13;;;16.52;;
49193;SDS011;35029;50.804;12.866;2022-12-07T01:57:43;22.25;;;15.45;;
49193;SDS011;35029;50.804;12.866;2022-12-07T02:00:13;25.45;;;17.17;;
49193;SDS011;35029;50.804;12.866;2022-12-07T02:02:41;21.50;;;15.80;;
49193;SDS011;35029;50.804;12.866;2022-12-07T02:05:12;24.48;;;16.35;;
49193;SDS011;35029;50.804;12.866;2022-12-07T02:07:39;22.20;;;15.18;;
49193;SDS011;35029;50.804;12.866;2022-12-07T02:10:12;18.40;;;13.80;;
49193;SDS011;35029;50.804;12.866;2022-12-07T02:12:37;20.50;;;14.70;;
49193;SDS011;35029;50.804;12.866;2022-12-07T02:15:03;21.95;;;14.32;;
49193;SDS011;35029;50.804;12.866;2022-12-07T02:17:34;18.27;;;14.02;;
49193;SDS011;35029;50.804;12.866;2022-12-07T02:31:32;18.10;;;12.57;;
49193;SDS011;35029;50.804;12.866;2022-12-07T02:34:05;17.60;;;12.32;;
49193;SDS011;35029;50.804;12.866;2022-12-07T02:36:39;17.95;;;12.48;;
49193;SDS011;35029;50.804;12.866;2022-12-07T02:39:14;17.15;;;11.82;;
49193;SDS011;35029;50.804;12.866;2022-12-07T02:41:55;17.08;;;11.88;;
49193;SDS011;35029;50.804;12.866;2022-12-07T02:44:27;16.92;;;11.60;;
49193;SDS011;35029;50.804;12.866;2022-12-07T02:46:54;16.45;;;12.05;;
49193;SDS011;35029;50.804;12.866;2022-12-07T02:49:23;14.23;;;11.30;;
49193;SDS011;35029;50.804;12.866;2022-12-07T02:51:51;15.43;;;10.65;;
49193;SDS011;35029;50.804;12.866;2022-12-07T02:54:18;16.10;;;9.57;;
49193;SDS011;35029;50.804;12.866;2022-12-07T03:18:40;11.48;;;8.13;;
49193;SDS011;35029;50.804;12.866;2022-12-07T03:21:21;11.98;;;7.43;;
49193;SDS011;35029;50.804;12.866;2022-12-07T03:23:51;11.40;;;8.37;;
49193;SDS011;35029;50.804;12.866;2022-12-07T03:26:21;10.27;;;7.38;;
49193;SDS011;35029;50.804;12.866;2022-12-07T03:28:54;11.98;;;7.95;;
49193;SDS011;35029;50.804;12.866;2022-12-07T03:31:29;11.23;;;7.80;;
49193;SDS011;35029;50.804;12.866;2022-12-07T03:34:03;10.65;;;7.57;;
49193;SDS011;35029;50.804;12.866;2022-12-07T03:37:18;9.20;;;7.25;;
49193;SDS011;35029;50.804;12.866;2022-12-07T03:39:38;12.15;;;7.70;;
49193;SDS011;35029;50.804;12.866;2022-12-07T03:42:10;10.27;;;6.68;;
49193;SDS011;35029;50.804;12.866;2022-12-07T03:44:36;11.57;;;7.35;;
49193;SDS011;35029;50.804;12.866;2022-12-07T03:49:39;11.40;;;7.22;;
49193;SDS011;35029;50.804;12.866;2022-12-07T03:57:47;9.63;;;6.47;;
49193;SDS011;35029;50.804;12.866;2022-12-07T04:00:15;9.95;;;6.72;;
49193;SDS011;35029;50.804;12.866;2022-12-07T04:02:43;9.43;;;6.55;;
49193;SDS011;35029;50.804;12.866;2022-12-07T04:05:08;8.43;;;6.43;;
49193;SDS011;35029;50.804;12.866;2022-12-07T04:07:34;7.18;;;5.65;;
49193;SDS011;35029;50.804;12.866;2022-12-07T04:10:00;7.82;;;6.00;;
49193;SDS011;35029;50.804;12.866;2022-12-07T04:12:25;7.05;;;5.70;;
49193;SDS011;35029;50.804;12.866;2022-12-07T04:14:51;7.03;;;5.25;;
49193;SDS011;35029;50.804;12.866;2022-12-07T04:17:16;7.95;;;5.60;;
49193;SDS011;35029;50.804;12.866;2022-12-07T04:19:42;7.38;;;5.35;;
49193;SDS011;35029;50.804;12.866;2022-12-07T04:22:07;7.88;;;5.85;;
49193;SDS011;35029;50.804;12.866;2022-12-07T04:24:33;6.95;;;5.55;;
49193;SDS011;35029;50.804;12.866;2022-12-07T04:26:59;7.22;;;5.18;;
49193;SDS011;35029;50.804;12.866;2022-12-07T04:29:25;9.55;;;6.63;;
49193;SDS011;35029;50.804;12.866;2022-12-07T04:31:51;7.35;;;5.43;;
49193;SDS011;35029;50.804;12.866;2022-12-07T04:34:17;6.47;;;5.30;;
49193;SDS011;35029;50.804;12.866;2022-12-07T04:36:44;7.95;;;5.53;;
49193;SDS011;35029;50.804;12.866;2022-12-07T04:39:17;7.75;;;4.90;;
49193;SDS011;35029;50.804;12.866;2022-12-07T04:41:48;5.85;;;5.05;;
49193;SDS011;35029;50.804;12.866;2022-12-07T04:44:14;6.10;;;4.68;;
49193;SDS011;35029;50.804;12.866;2022-12-07T04:46:40;6.70;;;4.78;;
49193;SDS011;35029;50.804;12.866;2022-12-07T04:49:06;5.65;;;4.35;;
49193;SDS011;35029;50.804;12.866;2022-12-07T04:51:33;7.43;;;4.13;;
49193;SDS011;35029;50.804;12.866;2022-12-07T04:53:59;5.70;;;4.43;;
49193;SDS011;35029;50.804;12.866;2022-12-07T04:56:24;6.82;;;4.32;;
49193;SDS011;35029;50.804;12.866;2022-12-07T04:58:51;6.30;;;3.85;;
49193;SDS011;35029;50.804;12.866;2022-12-07T05:01:18;5.50;;;4.15;;
49193;SDS011;35029;50.804;12.866;2022-12-07T05:03:45;5.00;;;3.83;;
49193;SDS011;35029;50.804;12.866;2022-12-07T05:06:11;5.45;;;4.10;;
49193;SDS011;35029;50.804;12.866;2022-12-07T05:08:37;6.03;;;4.75;;
49193;SDS011;35029;50.804;12.866;2022-12-07T05:11:03;6.65;;;4.00;;
49193;SDS011;35029;50.804;12.866;2022-12-07T05:13:29;6.72;;;4.65;;
49193;SDS011;35029;50.804;12.866;2022-12-07T05:15:56;6.53;;;4.32;;
49193;SDS011;35029;50.804;12.866;2022-12-07T05:18:21;7.72;;;4.55;;
49193;SDS011;35029;50.804;12.866;2022-12-07T05:20:47;7.72;;;5.05;;
49193;SDS011;35029;50.804;12.866;2022-12-07T05:23:13;6.85;;;4.85;;
49193;SDS011;35029;50.804;12.866;2022-12-07T05:25:38;6.65;;;5.22;;
49193;SDS011;35029;50.804;12.866;2022-12-07T05:28:04;9.57;;;5.85;;
49193;SDS011;35029;50.804;12.866;2022-12-07T05:30:30;8.43;;;5.60;;
49193;SDS011;35029;50.804;12.866;2022-12-07T05:32:56;6.65;;;5.35;;
49193;SDS011;35029;50.804;12.866;2022-12-07T05:35:21;8.80;;;6.35;;
49193;SDS011;35029;50.804;12.866;2022-12-07T05:37:47;10.15;;;6.70;;
49193;SDS011;35029;50.804;12.866;2022-12-07T05:40:14;8.63;;;6.00;;
49193;SDS011;35029;50.804;12.866;2022-12-07T05:42:40;10.05;;;6.80;;
49193;SDS011;35029;50.804;12.866;2022-12-07T05:45:06;8.93;;;6.45;;
49193;SDS011;35029;50.804;12.866;2022-12-07T05:47:32;11.55;;;7.35;;
49193;SDS011;35029;50.804;12.866;2022-12-07T05:49:58;13.35;;;7.85;;
49193;SDS011;35029;50.804;12.866;2022-12-07T05:52:23;14.43;;;6.63;;
49193;SDS011;35029;50.804;12.866;2022-12-07T05:54:49;9.82;;;7.43;;
49193;SDS011;35029;50.804;12.866;2022-12-07T05:57:15;12.15;;;7.35;;
49193;SDS011;35029;50.804;12.866;2022-12-07T05:59:40;9.70;;;7.50;;
49193;SDS011;35029;50.804;12.866;2022-12-07T06:02:07;13.25;;;8.00;;
49193;SDS011;35029;50.804;12.866;2022-12-07T06:04:36;13.60;;;8.77;;
49193;SDS011;35029;50.804;12.866;2022-12-07T06:07:04;12.32;;;7.97;;
49193;SDS011;35029;50.804;12.866;2022-12-07T06:09:30;15.32;;;9.82;;
49193;SDS011;35029;50.804;12.866;2022-12-07T06:11:57;14.18;;;8.85;;
49193;SDS011;35029;50.804;12.866;2022-12-07T06:14:42;12.77;;;9.52;;
49193;SDS011;35029;50.804;12.866;2022-12-07T06:17:08;14.70;;;9.90;;
49193;SDS011;35029;50.804;12.866;2022-12-07T06:19:34;13.18;;;10.10;;
49193;SDS011;35029;50.804;12.866;2022-12-07T06:22:00;12.80;;;9.38;;
49193;SDS011;35029;50.804;12.866;2022-12-07T06:24:26;18.48;;;10.57;;
49193;SDS011;35029;50.804;12.866;2022-12-07T06:26:52;14.73;;;10.98;;
49193;SDS011;35029;50.804;12.866;2022-12-07T06:29:17;16.83;;;10.88;;
49193;SDS011;35029;50.804;12.866;2022-12-07T06:31:44;16.75;;;12.02;;
49193;SDS011;35029;50.804;12.866;2022-12-07T06:34:10;16.95;;;11.90;;
49193;SDS011;35029;50.804;12.866;2022-12-07T06:36:40;19.17;;;12.90;;
49193;SDS011;35029;50.804;12.866;2022-12-07T06:39:06;18.83;;;10.80;;
49193;SDS011;35029;50.804;12.866;2022-12-07T06:41:37;16.27;;;10.77;;
49193;SDS011;35029;50.804;12.866;2022-12-07T06:44:04;16.75;;;11.98;;
49193;SDS011;35029;50.804;12.866;2022-12-07T06:46:31;17.02;;;12.63;;
49193;SDS011;35029;50.804;12.866;2022-12-07T06:48:57;19.40;;;11.98;;
49193;SDS011;35029;50.804;12.866;2022-12-07T06:51:22;16.30;;;11.63;;
49193;SDS011;35029;50.804;12.866;2022-12-07T06:53:48;16.25;;;12.25;;
49193;SDS011;35029;50.804;12.866;2022-12-07T06:56:13;18.83;;;13.68;;
49193;SDS011;35029;50.804;12.866;2022-12-07T06:58:40;16.85;;;13.02;;
49193;SDS011;35029;50.804;12.866;2022-12-07T07:01:13;19.35;;;13.13;;
49193;SDS011;35029;50.804;12.866;2022-12-07T07:03:39;27.42;;;14.95;;
49193;SDS011;35029;50.804;12.866;2022-12-07T07:06:05;23.42;;;15.30;;
49193;SDS011;35029;50.804;12.866;2022-12-07T07:08:35;16.45;;;12.77;;
49193;SDS011;35029;50.804;12.866;2022-12-07T07:11:02;15.82;;;11.88;;
49193;SDS011;35029;50.804;12.866;2022-12-07T07:13:28;19.02;;;13.18;;
49193;SDS011;35029;50.804;12.866;2022-12-07T07:15:55;16.38;;;12.25;;
49193;SDS011;35029;50.804;12.866;2022-12-07T07:18:23;18.40;;;12.55;;
49193;SDS011;35029;50.804;12.866;2022-12-07T07:20:51;17.98;;;12.68;;
49193;SDS011;35029;50.804;12.866;2022-12-07T07:23:18;18.33;;;12.77;;
49193;SDS011;35029;50.804;12.866;2022-12-07T07:25:45;16.52;;;11.88;;
49193;SDS011;35029;50.804;12.866;2022-12-07T07:28:11;17.73;;;11.82;;
49193;SDS011;35029;50.804;12.866;2022-12-07T07:30:38;21.65;;;12.85;;
49193;SDS011;35029;50.804;12.866;2022-12-07T07:33:10;22.15;;;13.57;;
49193;SDS011;35029;50.804;12.866;2022-12-07T07:35:37;18.30;;;12.93;;
49193;SDS011;35029;50.804;12.866;2022-12-07T07:38:06;19.35;;;12.65;;
49193;SDS011;35029;50.804;12.866;2022-12-07T07:40:32;17.92;;;13.00;;
49193;SDS011;35029;50.804;12.866;2022-12-07T07:42:59;16.10;;;12.73;;
49193;SDS011;35029;50.804;12.866;2022-12-07T07:45:26;18.55;;;13.55;;
49193;SDS011;35029;50.804;12.866;2022-12-07T07:47:53;17.30;;;12.23;;
49193;SDS011;35029;50.804;12.866;2022-12-07T07:50:21;18.98;;;12.68;;
49193;SDS011;35029;50.804;12.866;2022-12-07T07:52:49;21.42;;;12.63;;
49193;SDS011;35029;50.804;12.866;2022-12-07T07:55:15;19.67;;;13.55;;
49193;SDS011;35029;50.804;12.866;2022-12-07T07:57:45;15.40;;;11.88;;
49193;SDS011;35029;50.804;12.866;2022-12-07T08:00:38;18.83;;;12.15;;
49193;SDS011;35029;50.804;12.866;2022-12-07T08:03:07;16.95;;;11.82;;
49193;SDS011;35029;50.804;12.866;2022-12-07T08:05:34;17.52;;;12.48;;
49193;SDS011;35029;50.804;12.866;2022-12-07T08:11:24;17.15;;;11.18;;
49193;SDS011;35029;50.804;12.866;2022-12-07T08:13:49;15.88;;;12.02;;
49193;SDS011;35029;50.804;12.866;2022-12-07T08:16:16;18.15;;;13.23;;
49193;SDS011;35029;50.804;12.866;2022-12-07T08:18:43;19.27;;;12.93;;
49193;SDS011;35029;50.804;12.866;2022-12-07T08:21:11;20.63;;;12.45;;
49193;SDS011;35029;50.804;12.866;2022-12-07T08:23:39;16.77;;;11.55;;
49193;SDS011;35029;50.804;12.866;2022-12-07T08:26:07;21.02;;;12.50;;
49193;SDS011;35029;50.804;12.866;2022-12-07T08:28:39;16.20;;;12.18;;
49193;SDS011;35029;50.804;12.866;2022-12-07T08:31:07;18.38;;;12.23;;
49193;SDS011;35029;50.804;12.866;2022-12-07T08:33:35;17.05;;;12.73;;
49193;SDS011;35029;50.804;12.866;2022-12-07T08:36:03;19.02;;;11.82;;
49193;SDS011;35029;50.804;12.866;2022-12-07T08:38:37;14.98;;;11.80;;
49193;SDS011;35029;50.804;12.866;2022-12-07T08:41:03;15.13;;;11.80;;
49193;SDS011;35029;50.804;12.866;2022-12-07T08:43:30;17.58;;;11.13;;
49193;SDS011;35029;50.804;12.866;2022-12-07T08:46:02;16.73;;;11.73;;
49193;SDS011;35029;50.804;12.866;2022-12-07T08:48:29;16.38;;;11.38;;
49193;SDS011;35029;50.804;12.866;2022-12-07T08:50:55;16.48;;;11.82;;
49193;SDS011;35029;50.804;12.866;2022-12-07T08:53:21;19.38;;;10.85;;
49193;SDS011;35029;50.804;12.866;2022-12-07T08:55:47;16.30;;;10.70;;
49193;SDS011;35029;50.804;12.866;2022-12-07T08:58:13;15.82;;;10.43;;
49193;SDS011;35029;50.804;12.866;2022-12-07T09:00:43;17.73;;;11.35;;
49193;SDS011;35029;50.804;12.866;2022-12-07T09:03:17;15.23;;;10.05;;
49193;SDS011;35029;50.804;12.866;2022-12-07T09:07:04;16.25;;;11.10;;
49193;SDS011;35029;50.804;12.866;2022-12-07T09:09:31;13.90;;;10.30;;
49193;SDS011;35029;50.804;12.866;2022-12-07T09:12:11;17.42;;;10.60;;
49193;SDS011;35029;50.804;12.866;2022-12-07T09:14:42;14.98;;;10.65;;
49193;SDS011;35029;50.804;12.866;2022-12-07T09:17:14;16.08;;;10.52;;
49193;SDS011;35029;50.804;12.866;2022-12-07T09:19:43;17.80;;;10.18;;
49193;SDS011;35029;50.804;12.866;2022-12-07T09:22:12;14.63;;;10.25;;
49193;SDS011;35029;50.804;12.866;2022-12-07T09:24:41;15.98;;;10.57;;
49193;SDS011;35029;50.804;12.866;2022-12-07T09:27:10;16.67;;;10.27;;
49193;SDS011;35029;50.804;12.866;2022-12-07T09:29:39;14.45;;;9.55;;
49193;SDS011;35029;50.804;12.866;2022-12-07T09:32:07;15.82;;;9.95;;
49193;SDS011;35029;50.804;12.866;2022-12-07T09:34:35;15.02;;;10.80;;
49193;SDS011;35029;50.804;12.866;2022-12-07T09:37:22;15.23;;;9.00;;
49193;SDS011;35029;50.804;12.866;2022-12-07T09:39:50;17.30;;;10.25;;
49193;SDS011;35029;50.804;12.866;2022-12-07T09:44:51;15.13;;;9.43;;
49193;SDS011;35029;50.804;12.866;2022-12-07T09:47:16;13.93;;;10.10;;
49193;SDS011;35029;50.804;12.866;2022-12-07T09:49:53;12.75;;;9.10;;
49193;SDS011;35029;50.804;12.866;2022-12-07T09:52:25;13.45;;;9.57;;
49193;SDS011;35029;50.804;12.866;2022-12-07T09:54:55;14.98;;;9.55;;
49193;SDS011;35029;50.804;12.866;2022-12-07T09:57:28;12.77;;;8.77;;
49193;SDS011;35029;50.804;12.866;2022-12-07T10:00:00;14.27;;;9.20;;
49193;SDS011;35029;50.804;12.866;2022-12-07T10:05:16;12.10;;;9.75;;
49193;SDS011;35029;50.804;12.866;2022-12-07T10:07:51;13.25;;;9.60;;
49193;SDS011;35029;50.804;12.866;2022-12-07T10:10:19;15.00;;;9.75;;
49193;SDS011;35029;50.804;12.866;2022-12-07T10:13:00;14.25;;;9.30;;
49193;SDS011;35029;50.804;12.866;2022-12-07T10:16:04;17.73;;;10.10;;
49193;SDS011;35029;50.804;12.866;2022-12-07T10:18:42;11.95;;;8.82;;
49193;SDS011;35029;50.804;12.866;2022-12-07T10:21:14;14.98;;;9.25;;
49193;SDS011;35029;50.804;12.866;2022-12-07T10:24:29;12.00;;;9.15;;
49193;SDS011;35029;50.804;12.866;2022-12-07T10:26:57;11.00;;;9.23;;
49193;SDS011;35029;50.804;12.866;2022-12-07T10:29:33;12.65;;;9.07;;
49193;SDS011;35029;50.804;12.866;2022-12-07T10:35:20;17.65;;;10.50;;
49193;SDS011;35029;50.804;12.866;2022-12-07T10:37:55;14.25;;;9.00;;
49193;SDS011;35029;50.804;12.866;2022-12-07T10:40:32;13.27;;;9.38;;
49193;SDS011;35029;50.804;12.866;2022-12-07T10:51:14;10.48;;;7.75;;
49193;SDS011;35029;50.804;12.866;2022-12-07T10:54:11;13.27;;;8.23;;
49193;SDS011;35029;50.804;12.866;2022-12-07T10:56:58;14.60;;;7.82;;
49193;SDS011;35029;50.804;12.866;2022-12-07T11:16:32;15.40;;;7.38;;
49193;SDS011;35029;50.804;12.866;2022-12-07T11:22:17;12.43;;;6.22;;
49193;SDS011;35029;50.804;12.866;2022-12-07T11:25:35;10.88;;;7.57;;
49193;SDS011;35029;50.804;12.866;2022-12-07T11:28:02;11.05;;;7.32;;
49193;SDS011;35029;50.804;12.866;2022-12-07T11:30:57;11.75;;;6.32;;
49193;SDS011;35029;50.804;12.866;2022-12-07T11:33:37;11.50;;;7.20;;
49193;SDS011;35029;50.804;12.866;2022-12-07T11:38:49;9.95;;;6.38;;
49193;SDS011;35029;50.804;12.866;2022-12-07T11:41:51;9.02;;;5.72;;
49193;SDS011;35029;50.804;12.866;2022-12-07T11:46:59;13.05;;;5.57;;
49193;SDS011;35029;50.804;12.866;2022-12-07T11:52:16;6.10;;;4.72;;
49193;SDS011;35029;50.804;12.866;2022-12-07T11:54:49;10.23;;;4.85;;
49193;SDS011;35029;50.804;12.866;2022-12-07T11:57:18;6.97;;;4.55;;
49193;SDS011;35029;50.804;12.866;2022-12-07T11:59:52;9.43;;;5.55;;
49193;SDS011;35029;50.804;12.866;2022-12-07T12:05:37;7.85;;;4.53;;
49193;SDS011;35029;50.804;12.866;2022-12-07T12:20:19;8.95;;;4.63;;
49193;SDS011;35029;50.804;12.866;2022-12-07T12:22:51;9.82;;;5.05;;
49193;SDS011;35029;50.804;12.866;2022-12-07T12:25:45;6.13;;;3.75;;
49193;SDS011;35029;50.804;12.866;2022-12-07T12:33:46;9.18;;;4.28;;
49193;SDS011;35029;50.804;12.866;2022-12-07T12:45:46;8.77;;;3.10;;
49193;SDS011;35029;50.804;12.866;2022-12-07T12:54:31;5.18;;;3.20;;
49193;SDS011;35029;50.804;12.866;2022-12-07T13:02:48;7.88;;;2.97;;
49193;SDS011;35029;50.804;12.866;2022-12-07T13:05:18;9.43;;;3.85;;
49193;SDS011;35029;50.804;12.866;2022-12-07T13:26:22;4.63;;;2.67;;
49193;SDS011;35029;50.804;12.866;2022-12-07T13:29:09;3.72;;;2.45;;
49193;SDS011;35029;50.804;12.866;2022-12-07T13:31:55;8.05;;;3.85;;
49193;SDS011;35029;50.804;12.866;2022-12-07T13:34:40;7.00;;;2.42;;
49193;SDS011;35029;50.804;12.866;2022-12-07T13:39:56;5.28;;;3.40;;
49193;SDS011;35029;50.804;12.866;2022-12-07T13:42:27;4.10;;;3.03;;
49193;SDS011;35029;50.804;12.866;2022-12-07T13:44:53;4.18;;;2.88;;
49193;SDS011;35029;50.804;12.866;2022-12-07T13:47:30;8.40;;;3.25;;
49193;SDS011;35029;50.804;12.866;2022-12-07T13:52:57;5.60;;;2.30;;
49193;SDS011;35029;50.804;12.866;2022-12-07T13:55:26;3.00;;;2.53;;
49193;SDS011;35029;50.804;12.866;2022-12-07T13:57:53;6.38;;;2.30;;
49193;SDS011;35029;50.804;12.866;2022-12-07T14:00:21;5.43;;;2.60;;
49193;SDS011;35029;50.804;12.866;2022-12-07T14:02:59;5.82;;;2.42;;
49193;SDS011;35029;50.804;12.866;2022-12-07T14:05:33;6.10;;;2.83;;
49193;SDS011;35029;50.804;12.866;2022-12-07T14:13:01;6.82;;;2.70;;
49193;SDS011;35029;50.804;12.866;2022-12-07T14:17:58;3.13;;;1.90;;
49193;SDS011;35029;50.804;12.866;2022-12-07T14:20:29;2.88;;;1.92;;
49193;SDS011;35029;50.804;12.866;2022-12-07T14:23:02;7.45;;;4.90;;
49193;SDS011;35029;50.804;12.866;2022-12-07T14:26:03;5.40;;;2.38;;
49193;SDS011;35029;50.804;12.866;2022-12-07T14:28:30;5.90;;;2.10;;
49193;SDS011;35029;50.804;12.866;2022-12-07T14:30:58;4.88;;;2.20;;
49193;SDS011;35029;50.804;12.866;2022-12-07T14:33:25;3.13;;;1.60;;
49193;SDS011;35029;50.804;12.866;2022-12-07T14:35:51;5.68;;;2.13;;
49193;SDS011;35029;50.804;12.866;2022-12-07T14:38:23;4.20;;;2.28;;
49193;SDS011;35029;50.804;12.866;2022-12-07T14:40:50;2.50;;;1.52;;
49193;SDS011;35029;50.804;12.866;2022-12-07T14:43:17;5.38;;;2.15;;
49193;SDS011;35029;50.804;12.866;2022-12-07T14:45:44;4.95;;;2.10;;
49193;SDS011;35029;50.804;12.866;2022-12-07T14:48:14;5.70;;;1.88;;
49193;SDS011;35029;50.804;12.866;2022-12-07T14:50:41;6.78;;;2.22;;
49193;SDS011;35029;50.804;12.866;2022-12-07T14:53:11;5.20;;;1.55;;
49193;SDS011;35029;50.804;12.866;2022-12-07T14:55:39;5.47;;;1.80;;
49193;SDS011;35029;50.804;12.866;2022-12-07T14:58:05;4.05;;;2.05;;
49193;SDS011;35029;50.804;12.866;2022-12-07T15:00:31;4.47;;;2.17;;
49193;SDS011;35029;50.804;12.866;2022-12-07T15:02:56;6.13;;;2.00;;
49193;SDS011;35029;50.804;12.866;2022-12-07T15:05:22;3.88;;;2.28;;
49193;SDS011;35029;50.804;12.866;2022-12-07T15:07:49;4.10;;;1.90;;
49193;SDS011;35029;50.804;12.866;2022-12-07T15:10:21;5.90;;;2.10;;
49193;SDS011;35029;50.804;12.866;2022-12-07T15:12:49;4.10;;;2.03;;
49193;SDS011;35029;50.804;12.866;2022-12-07T15:15:14;3.72;;;1.90;;
49193;SDS011;35029;50.804;12.866;2022-12-07T15:17:40;2.72;;;1.75;;
49193;SDS011;35029;50.804;12.866;2022-12-07T15:20:07;3.17;;;1.63;;
49193;SDS011;35029;50.804;12.866;2022-12-07T15:22:37;3.42;;;1.60;;
49193;SDS011;35029;50.804;12.866;2022-12-07T15:25:03;2.95;;;1.60;;
49193;SDS011;35029;50.804;12.866;2022-12-07T15:27:31;5.30;;;1.88;;
49193;SDS011;35029;50.804;12.866;2022-12-07T15:29:56;6.97;;;2.13;;
49193;SDS011;35029;50.804;12.866;2022-12-07T15:32:22;3.65;;;2.08;;
49193;SDS011;35029;50.804;12.866;2022-12-07T15:34:48;3.03;;;1.98;;
49193;SDS011;35029;50.804;12.866;2022-12-07T15:37:15;5.60;;;2.47;;
49193;SDS011;35029;50.804;12.866;2022-12-07T15:39:40;3.67;;;1.90;;
49193;SDS011;35029;50.804;12.866;2022-12-07T15:42:06;4.00;;;2.30;;
49193;SDS011;35029;50.804;12.866;2022-12-07T15:44:32;4.85;;;1.88;;
49193;SDS011;35029;50.804;12.866;2022-12-07T15:47:23;2.80;;;1.83;;
49193;SDS011;35029;50.804;12.866;2022-12-07T15:49:50;2.65;;;1.83;;
49193;SDS011;35029;50.804;12.866;2022-12-07T15:52:16;4.22;;;1.73;;
49193;SDS011;35029;50.804;12.866;2022-12-07T15:54:41;4.85;;;1.75;;
49193;SDS011;35029;50.804;12.866;2022-12-07T15:57:08;3.25;;;1.67;;
49193;SDS011;35029;50.804;12.866;2022-12-07T15:59:34;5.15;;;2.75;;
49193;SDS011;35029;50.804;12.866;2022-12-07T16:01:59;6.55;;;2.25;;
49193;SDS011;35029;50.804;12.866;2022-12-07T16:04:28;7.30;;;2.10;;
49193;SDS011;35029;50.804;12.866;2022-12-07T16:06:54;7.07;;;1.85;;
49193;SDS011;35029;50.804;12.866;2022-12-07T16:09:20;4.22;;;1.58;;
49193;SDS011;35029;50.804;12.866;2022-12-07T16:11:46;4.30;;;2.10;;
49193;SDS011;35029;50.804;12.866;2022-12-07T16:14:15;4.28;;;1.80;;
49193;SDS011;35029;50.804;12.866;2022-12-07T16:16:41;4.85;;;1.85;;
49193;SDS011;35029;50.804;12.866;2022-12-07T16:19:07;4.35;;;1.90;;
49193;SDS011;35029;50.804;12.866;2022-12-07T16:21:34;8.63;;;2.05;;
49193;SDS011;35029;50.804;12.866;2022-12-07T16:24:01;5.55;;;2.08;;
49193;SDS011;35029;50.804;12.866;2022-12-07T16:26:26;5.18;;;2.03;;
49193;SDS011;35029;50.804;12.866;2022-12-07T16:28:53;3.75;;;2.10;;
49193;SDS011;35029;50.804;12.866;2022-12-07T16:31:24;3.75;;;2.08;;
49193;SDS011;35029;50.804;12.866;2022-12-07T16:33:52;3.17;;;1.85;;
49193;SDS011;35029;50.804;12.866;2022-12-07T16:36:19;4.78;;;1.77;;
49193;SDS011;35029;50.804;12.866;2022-12-07T16:38:48;5.35;;;2.05;;
49193;SDS011;35029;50.804;12.866;2022-12-07T16:41:14;6.80;;;2.50;;
49193;SDS011;35029;50.804;12.866;2022-12-07T16:43:40;3.92;;;1.95;;
49193;SDS011;35029;50.804;12.866;2022-12-07T16:46:05;4.10;;;2.00;;
49193;SDS011;35029;50.804;12.866;2022-12-07T16:48:36;2.90;;;1.95;;
49193;SDS011;35029;50.804;12.866;2022-12-07T16:51:04;7.10;;;1.95;;
49193;SDS011;35029;50.804;12.866;2022-12-07T16:53:39;3.17;;;2.72;;
49193;SDS011;35029;50.804;12.866;2022-12-07T16:56:13;3.78;;;2.25;;
49193;SDS011;35029;50.804;12.866;2022-12-07T16:58:41;4.10;;;2.03;;
49193;SDS011;35029;50.804;12.866;2022-12-07T17:01:11;4.78;;;2.00;;
49193;SDS011;35029;50.804;12.866;2022-12-07T17:03:38;5.30;;;2.50;;
49193;SDS011;35029;50.804;12.866;2022-12-07T17:06:15;3.80;;;2.13;;
49193;SDS011;35029;50.804;12.866;2022-12-07T17:08:46;4.55;;;2.30;;
49193;SDS011;35029;50.804;12.866;2022-12-07T17:11:15;3.63;;;2.15;;
49193;SDS011;35029;50.804;12.866;2022-12-07T17:13:48;6.70;;;2.50;;
49193;SDS011;35029;50.804;12.866;2022-12-07T17:16:35;5.78;;;2.47;;
49193;SDS011;35029;50.804;12.866;2022-12-07T17:19:08;4.90;;;2.65;;
49193;SDS011;35029;50.804;12.866;2022-12-07T17:21:39;8.20;;;2.47;;
49193;SDS011;35029;50.804;12.866;2022-12-07T17:24:06;5.75;;;2.70;;
49193;SDS011;35029;50.804;12.866;2022-12-07T17:26:34;5.65;;;2.75;;